createdAt,value
2019-03-15T00:00:45.723Z,98550.05
2019-03-15T00:04:52.932Z,98553.58
2019-03-15T00:08:59.169Z,98548.33
2019-03-15T00:13:04.717Z,98547.43
2019-03-15T00:17:09.906Z,98561.44
2019-03-15T00:21:14.730Z,98548.33
2019-03-15T00:25:19.001Z,98547.44
2019-03-15T00:29:23.221Z,98545.69
2019-03-15T00:33:28.440Z,98553.97
2019-03-15T00:37:36.488Z,98540.89
2019-03-15T00:41:41.929Z,98546.11
2019-03-15T00:45:46.148Z,98538.70
2019-03-15T00:49:52.878Z,98544.39
2019-03-15T00:53:57.842Z,98545.27
2019-03-15T00:58:02.608Z,98556.17
2019-03-15T01:02:07.150Z,98561.44
2019-03-15T01:06:13.309Z,98571.06
2019-03-15T01:10:18.671Z,98577.17
2019-03-15T01:14:22.918Z,98578.94
2019-03-15T01:18:27.720Z,98577.22
2019-03-15T01:22:33.800Z,98574.61
2019-03-15T01:26:40.342Z,98587.72
2019-03-15T01:30:46.870Z,98584.64
2019-03-15T01:34:53.671Z,98598.65
2019-03-15T01:38:58.357Z,98595.58
2019-03-15T01:43:03.147Z,98593.81
2019-03-15T01:47:09.810Z,98594.67
2019-03-15T01:51:15.821Z,98597.30
2019-03-15T01:55:23.764Z,98610.84
2019-03-15T01:59:30.078Z,98593.81
2019-03-15T02:03:34.546Z,98616.08
2019-03-15T02:07:38.797Z,98602.53
2019-03-15T02:11:42.975Z,98612.14
2019-03-15T02:15:47.223Z,98608.63
2019-03-15T02:19:51.459Z,98608.63
2019-03-15T02:23:55.726Z,98607.75
2019-03-15T02:28:00.255Z,98611.24
2019-03-15T02:32:04.449Z,98620.42
2019-03-15T02:36:08.661Z,98603.83
2019-03-15T02:40:13.187Z,98620.00
2019-03-15T02:44:17.568Z,98622.63
2019-03-15T02:48:21.976Z,98621.31
2019-03-15T02:52:26.613Z,98637.04
2019-03-15T02:56:30.885Z,98640.98
2019-03-15T03:00:35.268Z,98633.56
2019-03-15T03:04:40.929Z,98638.80
2019-03-15T03:08:46.445Z,98640.12
2019-03-15T03:12:51.366Z,98649.69
2019-03-15T03:16:55.857Z,98658.87
2019-03-15T03:21:03.330Z,98660.63
2019-03-15T03:25:07.682Z,98678.53
2019-03-15T03:29:12.027Z,98682.02
2019-03-15T03:33:16.235Z,98683.78
2019-03-15T03:37:21.293Z,98693.41
2019-03-15T03:41:25.815Z,98710.88
2019-03-15T03:45:30.344Z,98714.82
2019-03-15T03:49:34.576Z,98715.72
2019-03-15T03:53:38.845Z,98725.30
2019-03-15T03:57:43.253Z,98726.62
2019-03-15T04:01:47.885Z,98745.86
2019-03-15T04:05:52.488Z,98746.72
2019-03-15T04:09:56.984Z,98740.17
2019-03-15T04:14:01.172Z,98750.23
2019-03-15T04:18:06.791Z,98757.20
2019-03-15T04:22:11.075Z,98754.59
2019-03-15T04:26:16.348Z,98767.69
2019-03-15T04:30:20.668Z,98779.92
2019-03-15T04:34:28.201Z,98786.47
2019-03-15T04:38:31.555Z,98789.09
2019-03-15T04:42:36.968Z,98791.27
2019-03-15T04:46:41.187Z,98807.44
2019-03-15T04:50:45.559Z,98814.88
2019-03-15T04:54:49.721Z,98820.98
2019-03-15T04:58:54.194Z,98840.19
2019-03-15T05:02:58.401Z,98841.94
2019-03-15T05:07:03.047Z,98855.04
2019-03-15T05:11:09.778Z,98869.89
2019-03-15T05:15:15.883Z,98883.00
2019-03-15T05:19:22.380Z,98889.09
2019-03-15T05:23:26.668Z,98902.20
2019-03-15T05:27:30.877Z,98901.33
2019-03-15T05:31:35.091Z,98914.42
2019-03-15T05:35:40.496Z,98920.55
2019-03-15T05:39:46.558Z,98930.14
2019-03-15T05:43:53.165Z,98929.28
2019-03-15T05:47:57.436Z,98943.27
2019-03-15T05:52:04.066Z,98938.89
2019-03-15T05:56:08.647Z,98943.69
2019-03-15T06:00:13.798Z,98946.34
2019-03-15T06:04:19.379Z,98973.86
2019-03-15T06:08:23.589Z,98983.47
2019-03-15T06:12:27.850Z,98991.34
2019-03-15T06:16:33.310Z,99017.56
2019-03-15T06:20:37.525Z,99017.55
2019-03-15T06:24:41.823Z,99038.97
2019-03-15T06:28:46.086Z,99054.70
2019-03-15T06:32:50.246Z,99050.28
2019-03-15T06:36:54.733Z,99071.68
2019-03-15T06:40:59.003Z,99058.56
2019-03-15T06:45:03.910Z,99060.33
2019-03-15T06:49:08.536Z,99071.66
2019-03-15T06:53:12.831Z,99072.98
2019-03-15T06:57:17.302Z,99097.47
2019-03-15T07:01:22.658Z,99096.57
2019-03-15T07:05:27.849Z,99124.96
2019-03-15T07:09:33.690Z,99104.39
2019-03-15T07:13:38.435Z,99100.02
2019-03-15T07:17:43.377Z,99098.69
2019-03-15T07:21:49.739Z,99100.46
2019-03-15T07:25:54.126Z,99111.80
2019-03-15T07:30:01.869Z,99121.44
2019-03-15T07:34:06.077Z,99121.47
2019-03-15T07:38:10.293Z,99128.05
2019-03-15T07:42:14.512Z,99134.23
2019-03-15T07:46:18.736Z,99136.90
2019-03-15T07:50:22.917Z,99140.84
2019-03-15T07:54:37.419Z,99143.02
2019-03-15T07:58:33.643Z,99146.09
2019-03-15T08:02:40.014Z,99136.00
2019-03-15T08:06:45.410Z,99132.50
2019-03-15T08:10:51.200Z,99151.75
2019-03-15T08:14:56.369Z,99154.37
2019-03-15T08:19:04.743Z,99157.42
2019-03-15T08:23:08.883Z,99160.02
2019-03-15T08:27:16.093Z,99160.88
2019-03-15T08:31:23.115Z,99150.33
2019-03-15T08:35:25.857Z,99134.52
2019-03-15T08:39:32.544Z,99155.03
2019-03-15T08:43:37.242Z,99154.55
2019-03-15T08:47:42.087Z,99169.84
2019-03-15T08:51:47.033Z,99162.33
2019-03-15T08:55:51.211Z,99183.26
2019-03-15T08:59:57.701Z,99168.31
2019-03-15T09:04:02.066Z,99173.11
2019-03-15T09:08:06.528Z,99157.77
2019-03-15T09:12:11.440Z,99165.20
2019-03-15T09:16:17.445Z,99147.14
2019-03-15T09:20:22.969Z,99158.95
2019-03-15T09:24:27.189Z,99170.28
2019-03-15T09:28:34.107Z,99178.61
2019-03-15T09:32:40.053Z,99178.16
2019-03-15T09:36:50.049Z,99187.45
2019-03-15T09:40:52.503Z,99182.27
2019-03-15T09:44:56.743Z,99185.39
2019-03-15T09:49:04.422Z,99180.63
2019-03-15T09:53:08.692Z,99149.05
2019-03-15T09:57:13.615Z,99143.28
2019-03-15T10:01:33.611Z,99145.84
2019-03-15T10:05:23.768Z,99125.64
2019-03-15T10:09:28.214Z,99121.20
2019-03-15T10:13:32.386Z,99118.06
2019-03-15T10:17:36.879Z,99109.23
2019-03-15T10:21:41.197Z,99103.94
2019-03-15T10:25:49.725Z,99099.53
2019-03-15T10:29:51.980Z,99105.58
2019-03-15T10:33:56.363Z,99096.23
2019-03-15T10:38:01.293Z,99114.08
2019-03-15T10:42:07.502Z,99114.44
2019-03-15T10:46:12.042Z,99107.32
2019-03-15T10:50:17.211Z,99111.22
2019-03-15T10:54:21.522Z,99105.41
2019-03-15T10:58:25.857Z,99104.02
2019-03-15T11:02:31.872Z,99104.02
2019-03-15T11:06:37.335Z,99091.77
2019-03-15T11:10:41.549Z,99089.15
2019-03-15T11:14:45.750Z,99089.15
2019-03-15T11:18:50.140Z,99082.46
2019-03-15T11:22:54.308Z,99088.50
2019-03-15T11:26:58.571Z,99094.59
2019-03-15T11:31:02.846Z,99096.75
2019-03-15T11:35:07.904Z,99110.83
2019-03-15T11:39:12.142Z,99097.73
2019-03-15T11:43:16.533Z,99097.73
2019-03-15T11:47:20.847Z,99083.11
2019-03-15T11:51:25.059Z,99076.01
2019-03-15T11:55:30.519Z,99076.01
2019-03-15T11:59:36.384Z,99078.19
2019-03-15T12:03:53.123Z,99061.55
2019-03-15T12:07:52.374Z,99069.06
2019-03-15T12:11:59.284Z,99069.06
2019-03-15T12:16:03.556Z,99065.14
2019-03-15T12:20:08.366Z,99068.53
2019-03-15T12:24:17.377Z,99068.53
2019-03-15T12:28:21.683Z,99065.41
2019-03-15T12:32:31.913Z,99071.93
2019-03-15T12:36:37.141Z,99074.55
2019-03-15T12:40:41.630Z,99084.25
2019-03-15T12:44:45.986Z,99074.53
2019-03-15T12:48:53.775Z,99083.25
2019-03-15T12:53:02.632Z,99078.43
2019-03-15T12:57:08.581Z,99069.66
2019-03-15T13:01:13.235Z,99070.09
2019-03-15T13:05:18.372Z,99079.33
2019-03-15T13:09:22.591Z,99075.45
2019-03-15T13:13:26.790Z,99096.55
2019-03-15T13:17:32.561Z,99087.89
2019-03-15T13:21:36.740Z,99087.89
2019-03-15T13:25:45.245Z,99090.66
2019-03-15T13:29:50.443Z,99097.31
2019-03-15T13:33:56.228Z,99101.37
2019-03-15T13:38:01.465Z,99102.33
2019-03-15T13:42:08.006Z,99091.54
2019-03-15T13:46:12.644Z,99091.54
2019-03-15T13:50:17.160Z,99088.98
2019-03-15T13:54:21.491Z,99090.23
2019-03-15T13:58:25.736Z,99095.14
2019-03-15T14:02:41.297Z,99077.16
2019-03-15T14:06:45.733Z,99085.51
2019-03-15T14:10:50.034Z,99081.58
2019-03-15T14:15:01.676Z,99093.45
2019-03-15T14:19:07.004Z,99092.17
2019-03-15T14:23:11.222Z,99082.16
2019-03-15T14:27:15.562Z,99078.75
2019-03-15T14:31:21.537Z,99077.91
2019-03-15T14:35:25.774Z,99066.48
2019-03-15T14:39:30.096Z,99061.66
2019-03-15T14:43:34.357Z,99071.36
2019-03-15T14:47:38.640Z,99076.09
2019-03-15T14:51:45.813Z,99065.84
2019-03-15T14:55:56.673Z,99065.84
2019-03-15T15:00:04.943Z,99055.90
2019-03-15T15:04:09.158Z,99059.13
2019-03-15T15:08:16.620Z,99059.13
2019-03-15T15:12:25.555Z,99056.55
2019-03-15T15:16:32.991Z,99052.67
2019-03-15T15:20:37.288Z,99043.48
2019-03-15T15:24:43.951Z,99047.00
2019-03-15T15:28:51.192Z,99052.25
2019-03-15T15:32:55.750Z,99052.73
2019-03-15T15:37:00.798Z,99048.80
2019-03-15T15:41:05.353Z,99037.88
2019-03-15T15:45:11.871Z,99035.27
2019-03-15T15:49:16.069Z,99032.17
2019-03-15T15:53:20.445Z,99033.95
2019-03-15T15:57:25.675Z,99019.96
2019-03-15T16:01:31.517Z,99023.93
2019-03-15T16:05:35.756Z,99018.66
2019-03-15T16:09:40.721Z,99012.14
2019-03-15T16:13:46.641Z,99006.42
2019-03-15T16:23:06.923Z,98994.16
2019-03-15T16:27:12.201Z,98992.84
2019-03-15T16:31:16.381Z,98998.58
2019-03-15T16:35:21.296Z,99002.98
2019-03-15T16:39:25.973Z,99008.70
2019-03-15T16:43:31.496Z,99005.20
2019-03-15T16:48:03.555Z,98997.73
2019-03-15T16:52:08.163Z,98991.16
2019-03-15T16:56:12.451Z,98993.73
2019-03-15T17:00:19.360Z,98995.52
2019-03-15T17:04:25.918Z,99000.78
2019-03-15T17:08:31.479Z,98992.45
2019-03-15T17:12:40.354Z,98992.06
2019-03-15T17:16:44.623Z,98975.43
2019-03-15T17:20:49.205Z,98977.16
2019-03-15T17:24:53.429Z,98969.73
2019-03-15T17:28:58.821Z,98977.59
2019-03-15T17:33:15.214Z,98972.75
2019-03-15T17:37:19.509Z,98973.20
2019-03-15T17:41:24.280Z,98975.82
2019-03-15T17:45:30.788Z,98980.59
2019-03-15T17:49:37.600Z,98977.95
2019-03-15T17:53:41.903Z,98973.58
2019-03-15T17:57:48.046Z,98970.09
2019-03-15T18:01:52.353Z,98961.34
2019-03-15T18:05:56.609Z,98957.85
2019-03-15T18:10:02.258Z,98951.69
2019-03-15T18:14:06.484Z,98948.66
2019-03-15T18:18:11.943Z,98943.81
2019-03-15T18:22:17.152Z,98929.81
2019-03-15T18:26:21.330Z,98923.70
2019-03-15T18:30:25.533Z,98921.08
2019-03-15T18:34:29.759Z,98918.45
2019-03-15T18:38:35.985Z,98918.90
2019-03-15T18:42:41.030Z,98923.70
2019-03-15T18:46:46.008Z,98918.03
2019-03-15T18:50:50.360Z,98926.77
2019-03-15T18:54:54.656Z,98913.14
2019-03-15T18:59:04.243Z,98921.91
2019-03-15T19:03:09.808Z,98912.69
2019-03-15T19:07:14.142Z,98905.66
2019-03-15T19:11:18.761Z,98899.08
2019-03-15T19:15:23.249Z,98901.69
2019-03-15T19:19:27.477Z,98894.64
2019-03-15T19:23:33.741Z,98896.37
2019-03-15T19:27:38.059Z,98893.73
2019-03-15T19:31:42.939Z,98884.92
2019-03-15T19:35:47.138Z,98881.37
2019-03-15T19:39:51.381Z,98889.20
2019-03-15T19:43:55.831Z,98895.30
2019-03-15T19:48:00.162Z,98888.30
2019-03-15T19:52:04.386Z,98876.39
2019-03-15T19:56:08.626Z,98871.96
2019-03-15T20:00:14.490Z,98875.45
2019-03-15T20:04:18.713Z,98872.73
2019-03-15T20:08:23.111Z,98866.48
2019-03-15T20:12:27.342Z,98842.72
2019-03-15T20:16:32.221Z,98862.82
2019-03-15T20:20:36.481Z,98856.19
2019-03-15T20:24:40.706Z,98872.33
2019-03-15T20:28:44.953Z,98855.16
2019-03-15T20:32:49.159Z,98852.86
2019-03-15T20:36:53.452Z,98855.86
2019-03-15T20:40:57.681Z,98843.53
2019-03-15T20:45:01.964Z,98842.65
2019-03-15T20:49:06.202Z,98828.95
2019-03-15T20:53:12.849Z,98809.15
2019-03-15T20:57:16.341Z,98813.47
2019-03-15T21:01:20.554Z,98801.08
2019-03-15T21:05:24.722Z,98800.99
2019-03-15T21:09:30.319Z,98800.99
2019-03-15T21:13:34.681Z,98785.52
2019-03-15T21:17:38.895Z,98796.84
2019-03-15T21:21:43.853Z,98770.37
2019-03-15T21:25:49.609Z,98770.30
2019-03-15T21:29:54.355Z,98782.09
2019-03-15T21:33:58.583Z,98773.20
2019-03-15T21:38:04.504Z,98781.60
2019-03-15T21:42:10.628Z,98788.45
2019-03-15T21:46:14.947Z,98800.31
2019-03-15T21:50:19.314Z,98789.63
2019-03-15T21:54:24.113Z,98781.13
2019-03-15T21:58:30.011Z,98781.13
2019-03-15T22:02:36.142Z,98776.15
2019-03-15T22:06:42.856Z,98751.57
2019-03-15T22:10:47.979Z,98751.57
2019-03-15T22:14:52.205Z,98746.61
2019-03-15T22:18:57.703Z,98749.66
2019-03-15T22:23:02.848Z,98762.76
2019-03-15T22:27:07.194Z,98748.56
2019-03-15T22:31:16.856Z,98748.56
2019-03-15T22:35:17.433Z,98720.80
2019-03-15T22:39:21.955Z,98733.53
2019-03-15T22:43:26.237Z,98748.39
2019-03-15T22:47:30.456Z,98743.54
2019-03-15T22:51:34.652Z,98739.58
2019-03-15T22:55:39.278Z,98715.39
2019-03-15T22:59:43.519Z,98735.16
2019-03-15T23:03:47.858Z,98726.81
2019-03-15T23:07:52.134Z,98707.39
2019-03-15T23:11:58.138Z,98723.69
2019-03-15T23:16:05.213Z,98734.16
2019-03-15T23:20:11.548Z,98727.06
2019-03-15T23:24:16.803Z,98727.58
2019-03-15T23:28:21.745Z,98720.03
2019-03-15T23:32:26.479Z,98716.53
2019-03-15T23:36:30.760Z,98716.53
2019-03-15T23:40:34.969Z,98730.05
2019-03-15T23:44:39.362Z,98722.52
2019-03-15T23:48:44.361Z,98712.33
2019-03-15T23:52:48.543Z,98714.53
2019-03-15T23:56:52.837Z,98688.96
